Santa Cruz, Brazil
Current Conditions -  °F | °C
As of 1:00 PM on Monday 26 Jan 2015 (Local Time) from SBPL Reporting Station
Few Clouds Few Clouds  
Wind Chill: 90°   Ceiling: Unl
Heat Index: 91°   Visibility: 6mi
Dew Point: 64°   Wind: 5mph
Humidity: 43%   Direction: 70°ENE
Pressure: 29.97"   Gusts: NA
Location:  8.24°S, 40.33°W
Report Text: SBPL 261600Z 07004KT 9999 FEW040 32/18 Q1015
Loading
Personal Weather Stations






























Interactive Weather Map New forecast layout! Learn more

10-Day Weather Forecast

Advertisements
Track Severe Weather on mobile